Rives, Missouri
Current Conditions -  °F | °C
As of 11:53 PM on Tuesday 25 Nov 2014 (Local Time) from KHKA Reporting Station
Clear Clear  
Wind Chill: 35°   Ceiling: Unl
Heat Index: 39°   Visibility: 10mi
Dew Point: 30°   Wind: 6mph
Humidity: 70%   Direction: 110°ESE
Pressure: 30.16"   Gusts: NA
Location:  36.09°N, 90.01°W
Report Text: KHKA 260553Z AUTO 11005KT 10SM CLR 04/M01 A3016 RMK AO2 SLP215 T00391011 10083 20033 401500028 58014
Loading
Personal Weather Stations






























Interactive Weather Map New forecast layout! Learn more

10-Day Weather Forecast

Advertisements
Track Severe Weather on mobile